createdAt,value
2018-08-22T00:02:25.263Z,63.42
2018-08-22T00:04:54.734Z,62.90
2018-08-22T00:07:24.361Z,61.96
2018-08-22T00:09:54.020Z,63.99
2018-08-22T00:12:23.485Z,63.24
2018-08-22T00:14:53.029Z,63.48
2018-08-22T00:17:22.449Z,62.84
2018-08-22T00:19:52.127Z,63.23
2018-08-22T00:22:21.760Z,64.06
2018-08-22T00:24:51.163Z,63.79
2018-08-22T00:27:20.520Z,64.76
2018-08-22T00:29:50.026Z,65.93
2018-08-22T00:32:19.517Z,65.44
2018-08-22T00:34:49.058Z,65.56
2018-08-22T00:37:19.643Z,66.22
2018-08-22T00:39:49.394Z,66.29
2018-08-22T00:42:18.812Z,66.35
2018-08-22T00:44:48.273Z,66.86
2018-08-22T00:47:17.690Z,67.26
2018-08-22T00:49:47.054Z,67.00
2018-08-22T00:52:16.717Z,67.15
2018-08-22T00:54:46.191Z,67.37
2018-08-22T00:57:15.748Z,67.84
2018-08-22T00:59:45.355Z,66.71
2018-08-22T01:02:14.857Z,66.15
2018-08-22T01:04:44.403Z,66.09
2018-08-22T01:07:14.035Z,66.44
2018-08-22T01:09:43.570Z,66.03
2018-08-22T01:12:12.980Z,66.14
2018-08-22T01:14:42.423Z,66.09
2018-08-22T01:17:11.836Z,65.99
2018-08-22T01:19:41.264Z,65.60
2018-08-22T01:22:10.709Z,65.38
2018-08-22T01:24:40.268Z,65.17
2018-08-22T01:27:14.352Z,65.12
2018-08-22T01:29:43.713Z,66.44
2018-08-22T01:32:13.039Z,67.22
2018-08-22T01:34:42.520Z,67.45
2018-08-22T01:37:11.952Z,67.61
2018-08-22T01:39:41.705Z,67.88
2018-08-22T01:42:11.135Z,67.64
2018-08-22T01:44:40.490Z,67.67
2018-08-22T01:47:09.858Z,67.77
2018-08-22T01:49:39.395Z,67.95
2018-08-22T01:52:08.830Z,68.04
2018-08-22T01:54:38.313Z,68.40
2018-08-22T01:57:07.723Z,68.31
2018-08-22T01:59:37.030Z,67.72
2018-08-22T02:02:06.503Z,68.30
2018-08-22T02:04:35.896Z,67.82
2018-08-22T02:07:05.422Z,68.34
2018-08-22T02:09:34.817Z,68.96
2018-08-22T02:12:04.248Z,68.32
2018-08-22T02:14:33.659Z,68.71
2018-08-22T02:17:03.058Z,68.82
2018-08-22T02:19:32.369Z,68.91
2018-08-22T02:22:01.702Z,69.49
2018-08-22T02:24:30.988Z,68.71
2018-08-22T02:27:00.633Z,68.71
2018-08-22T02:29:30.077Z,69.54
2018-08-22T02:31:59.492Z,69.75
2018-08-22T02:34:29.037Z,69.40
2018-08-22T02:36:58.638Z,69.51
2018-08-22T02:39:28.560Z,69.44
2018-08-22T02:41:57.937Z,69.99
2018-08-22T02:44:27.612Z,69.35
2018-08-22T02:46:56.953Z,69.88
2018-08-22T02:49:26.396Z,70.30
2018-08-22T02:51:55.764Z,70.29
2018-08-22T02:54:26.572Z,70.50
2018-08-22T02:56:55.998Z,70.55
2018-08-22T02:59:25.531Z,71.04
2018-08-22T03:01:55.005Z,70.46
2018-08-22T03:04:24.386Z,70.88
2018-08-22T03:06:53.702Z,70.66
2018-08-22T03:09:23.164Z,71.00
2018-08-22T03:11:52.443Z,71.09
2018-08-22T03:14:21.737Z,71.05
2018-08-22T03:16:51.029Z,70.43
2018-08-22T03:19:20.771Z,70.00
2018-08-22T03:21:50.191Z,70.37
2018-08-22T03:24:19.646Z,69.86
2018-08-22T03:26:49.025Z,70.44
2018-08-22T03:29:18.482Z,70.66
2018-08-22T03:31:48.027Z,71.84
2018-08-22T03:34:17.526Z,72.37
2018-08-22T03:36:47.169Z,72.14
2018-08-22T03:39:16.644Z,72.41
2018-08-22T03:41:46.099Z,72.52
2018-08-22T03:44:15.788Z,72.42
2018-08-22T03:46:45.395Z,73.34
2018-08-22T03:49:14.968Z,73.84
2018-08-22T03:51:44.500Z,73.98
2018-08-22T03:54:13.963Z,74.15
2018-08-22T03:56:43.597Z,74.00
2018-08-22T03:59:13.084Z,73.94
2018-08-22T04:01:42.611Z,73.71
2018-08-22T04:04:11.948Z,74.07
2018-08-22T04:06:41.204Z,73.51
2018-08-22T04:09:10.694Z,73.57
2018-08-22T04:11:40.148Z,73.39
2018-08-22T04:14:09.636Z,73.65
2018-08-22T04:16:38.981Z,72.59
2018-08-22T04:19:08.429Z,72.02
2018-08-22T04:21:37.825Z,70.05
2018-08-22T04:24:07.224Z,68.79
2018-08-22T04:26:36.657Z,67.21
2018-08-22T04:29:06.724Z,65.65
2018-08-22T04:31:36.308Z,64.37
2018-08-22T04:34:05.843Z,62.89
2018-08-22T04:36:35.341Z,62.14
2018-08-22T04:39:06.509Z,60.59
2018-08-22T04:41:35.831Z,59.10
2018-08-22T04:44:05.526Z,57.78
2018-08-22T04:46:35.081Z,56.85
2018-08-22T04:49:04.633Z,55.76
2018-08-22T04:51:34.137Z,53.83
2018-08-22T04:54:03.673Z,53.45
2018-08-22T04:56:33.608Z,52.38
2018-08-22T04:59:03.175Z,51.61
2018-08-22T05:01:32.749Z,51.06
2018-08-22T05:04:02.257Z,51.46
2018-08-22T05:06:31.672Z,50.22
2018-08-22T05:09:01.220Z,49.13
2018-08-22T05:11:30.778Z,47.69
2018-08-22T05:14:00.835Z,44.75
2018-08-22T05:16:30.479Z,44.06
2018-08-22T05:19:00.014Z,42.11
2018-08-22T05:21:29.480Z,42.41
2018-08-22T05:23:59.218Z,42.26
2018-08-22T05:26:29.010Z,41.57
2018-08-22T05:28:58.497Z,40.45
2018-08-22T05:31:27.940Z,41.52
2018-08-22T05:33:57.587Z,41.95
2018-08-22T05:36:27.687Z,40.32
2018-08-22T05:38:57.164Z,40.24
2018-08-22T05:41:26.619Z,39.66
2018-08-22T05:43:56.116Z,39.18
2018-08-22T05:46:25.582Z,40.23
2018-08-22T05:48:55.151Z,39.21
2018-08-22T05:51:24.776Z,38.32
2018-08-22T05:53:54.202Z,38.12
2018-08-22T05:56:23.705Z,37.33
2018-08-22T05:58:54.258Z,38.23
2018-08-22T06:01:23.589Z,37.64
2018-08-22T06:03:53.007Z,37.04
2018-08-22T06:06:25.418Z,35.20
2018-08-22T06:08:55.217Z,35.08
2018-08-22T06:11:25.341Z,34.97
2018-08-22T06:13:54.855Z,32.75
2018-08-22T06:16:24.273Z,33.14
2018-08-22T06:18:53.701Z,31.78
2018-08-22T06:21:23.192Z,31.49
2018-08-22T06:23:52.913Z,29.99
2018-08-22T06:26:22.464Z,31.03
2018-08-22T06:28:51.921Z,29.18
2018-08-22T06:31:21.410Z,27.45
2018-08-22T06:33:50.881Z,27.23
2018-08-22T06:36:20.640Z,28.64
2018-08-22T06:38:50.083Z,27.76
2018-08-22T06:41:19.566Z,26.93
2018-08-22T06:43:48.914Z,26.75
2018-08-22T06:46:18.270Z,27.93
2018-08-22T06:48:47.997Z,26.99
2018-08-22T06:51:17.424Z,27.34
2018-08-22T06:53:50.282Z,26.63
2018-08-22T06:56:19.609Z,26.77
2018-08-22T06:58:48.943Z,27.48
2018-08-22T07:01:18.347Z,27.21
2018-08-22T07:03:47.997Z,26.23
2018-08-22T07:06:17.511Z,27.80
2018-08-22T07:08:47.088Z,27.28
2018-08-22T07:11:16.589Z,27.54
2018-08-22T07:13:46.738Z,28.35
2018-08-22T07:16:16.236Z,28.04
2018-08-22T07:18:45.600Z,28.64
2018-08-22T07:21:15.026Z,27.64
2018-08-22T07:23:44.374Z,26.95
2018-08-22T07:26:13.840Z,26.48
2018-08-22T07:28:43.045Z,25.66
2018-08-22T07:31:12.450Z,27.04
2018-08-22T07:33:42.096Z,25.45
2018-08-22T07:36:11.536Z,25.95
2018-08-22T07:38:41.711Z,25.14
2018-08-22T07:41:11.774Z,24.76
2018-08-22T07:43:41.264Z,25.27
2018-08-22T07:46:10.686Z,23.51
2018-08-22T07:48:40.039Z,23.74
2018-08-22T07:51:09.701Z,24.77
2018-08-22T07:53:39.200Z,23.45
2018-08-22T07:56:08.810Z,24.45
2018-08-22T07:58:38.394Z,24.66
2018-08-22T08:01:07.833Z,23.17
2018-08-22T08:03:37.403Z,24.31
2018-08-22T08:06:07.202Z,23.66
2018-08-22T08:08:36.659Z,23.57
2018-08-22T08:11:06.177Z,23.97
2018-08-22T08:13:35.538Z,23.04
2018-08-22T08:16:04.789Z,23.13
2018-08-22T08:18:35.030Z,22.45
2018-08-22T08:21:04.256Z,23.14
2018-08-22T08:23:33.726Z,23.01
2018-08-22T08:26:03.203Z,23.41
2018-08-22T08:28:33.198Z,22.63
2018-08-22T08:31:02.872Z,22.73
2018-08-22T08:33:32.299Z,22.45
2018-08-22T08:36:01.750Z,22.78
2018-08-22T08:38:31.265Z,22.97
2018-08-22T08:41:00.761Z,21.01
2018-08-22T08:43:30.643Z,21.73
2018-08-22T08:46:00.350Z,22.51
2018-08-22T08:48:29.831Z,21.68
2018-08-22T08:50:59.363Z,21.31
2018-08-22T08:53:28.765Z,21.97
2018-08-22T08:55:58.217Z,21.29
2018-08-22T08:58:27.734Z,21.40
2018-08-22T09:00:57.318Z,20.24
2018-08-22T09:03:27.415Z,19.16
2018-08-22T09:05:56.855Z,21.72
2018-08-22T09:08:26.600Z,21.35
2018-08-22T09:10:56.308Z,19.17
2018-08-22T09:13:25.911Z,19.80
2018-08-22T09:15:55.336Z,19.29
2018-08-22T09:18:25.116Z,19.62
2018-08-22T09:20:54.797Z,19.32
2018-08-22T09:23:24.418Z,19.35
2018-08-22T09:25:53.920Z,17.89
2018-08-22T09:28:23.588Z,17.89
2018-08-22T09:30:53.056Z,19.88
2018-08-22T09:33:22.614Z,18.65
2018-08-22T09:35:52.469Z,18.71
2018-08-22T09:38:22.573Z,19.23
2018-08-22T09:40:52.229Z,19.08
2018-08-22T09:43:21.909Z,18.07
2018-08-22T09:45:55.373Z,17.13
2018-08-22T09:48:24.945Z,16.87
2018-08-22T09:50:54.568Z,18.08
2018-08-22T09:53:24.030Z,18.40
2018-08-22T09:55:53.392Z,18.76
2018-08-22T09:58:22.789Z,19.28
2018-08-22T10:00:57.971Z,19.20
2018-08-22T10:03:27.740Z,19.20
2018-08-22T10:05:57.308Z,16.52
2018-08-22T10:08:26.858Z,16.78
2018-08-22T10:10:56.232Z,16.11
2018-08-22T10:13:25.756Z,16.87
2018-08-22T10:15:55.096Z,17.03
2018-08-22T10:18:24.606Z,17.35
2018-08-22T10:20:54.146Z,16.44
2018-08-22T10:23:23.633Z,16.95
2018-08-22T10:25:53.557Z,17.28
2018-08-22T10:28:23.400Z,17.83
2018-08-22T10:30:52.994Z,16.36
2018-08-22T10:33:22.591Z,15.95
2018-08-22T10:35:52.055Z,16.34
2018-08-22T10:38:21.445Z,15.62
2018-08-22T10:40:51.128Z,15.19
2018-08-22T10:43:20.568Z,15.95
2018-08-22T10:45:50.608Z,16.26
2018-08-22T10:48:20.395Z,15.60
2018-08-22T10:50:49.986Z,15.63
2018-08-22T10:53:19.549Z,15.11
2018-08-22T10:55:49.071Z,14.91
2018-08-22T10:58:18.775Z,16.04
2018-08-22T11:00:48.543Z,16.14
2018-08-22T11:03:18.346Z,15.32
2018-08-22T11:05:47.879Z,15.15
2018-08-22T11:08:17.333Z,15.07
2018-08-22T11:10:46.991Z,14.12
2018-08-22T11:13:16.636Z,15.17
2018-08-22T11:15:46.189Z,14.91
2018-08-22T11:18:15.942Z,15.55
2018-08-22T11:20:47.456Z,15.90
2018-08-22T11:23:29.209Z,15.20
2018-08-22T11:26:10.050Z,13.60
2018-08-22T11:28:50.846Z,15.28
2018-08-22T11:31:31.280Z,14.53
2018-08-22T11:34:11.536Z,13.36
2018-08-22T11:36:43.723Z,13.46
2018-08-22T11:39:13.615Z,13.33
2018-08-22T11:41:43.143Z,14.65
2018-08-22T11:44:12.717Z,14.96
2018-08-22T11:46:42.395Z,14.09
2018-08-22T11:49:11.995Z,14.72
2018-08-22T11:51:41.543Z,16.66
2018-08-22T11:54:11.231Z,16.94
2018-08-22T11:56:41.034Z,17.80
2018-08-22T11:59:10.695Z,17.73
2018-08-22T12:01:39.962Z,18.40
2018-08-22T12:04:10.454Z,19.89
2018-08-22T12:06:40.327Z,20.69
2018-08-22T12:09:11.776Z,20.08
2018-08-22T12:11:42.003Z,20.58
2018-08-22T12:14:11.798Z,20.27
2018-08-22T12:16:41.861Z,19.55
2018-08-22T12:19:12.178Z,19.58
2018-08-22T12:21:42.591Z,21.00
2018-08-22T12:24:13.728Z,21.12
2018-08-22T12:26:43.932Z,21.50
2018-08-22T12:29:13.531Z,20.53
2018-08-22T12:31:43.075Z,20.20
2018-08-22T12:34:12.621Z,20.73
2018-08-22T12:36:42.081Z,20.26
2018-08-22T12:39:11.589Z,19.97
2018-08-22T12:41:41.069Z,20.62
2018-08-22T12:44:10.550Z,21.23
2018-08-22T12:46:40.171Z,20.96
2018-08-22T12:49:10.010Z,20.62
2018-08-22T12:51:40.029Z,20.04
2018-08-22T12:54:09.546Z,20.21
2018-08-22T12:56:39.135Z,19.11
2018-08-22T12:59:08.939Z,19.14
2018-08-22T13:01:38.707Z,19.28
2018-08-22T13:04:08.616Z,19.61
2018-08-22T13:06:38.454Z,19.30
2018-08-22T13:09:10.319Z,18.64
2018-08-22T13:11:39.768Z,17.66
2018-08-22T13:14:09.469Z,17.81
2018-08-22T13:16:38.963Z,16.42
2018-08-22T13:19:08.594Z,17.04
2018-08-22T13:21:38.071Z,16.56
2018-08-22T13:24:08.010Z,16.14
2018-08-22T13:26:37.693Z,17.56
2018-08-22T13:29:07.258Z,16.77
2018-08-22T13:31:36.772Z,16.15
2018-08-22T13:34:06.752Z,16.55
2018-08-22T13:36:36.518Z,15.94
2018-08-22T13:39:08.587Z,16.98
2018-08-22T13:41:38.653Z,16.22
2018-08-22T13:44:08.769Z,16.07
2018-08-22T13:46:38.676Z,15.97
2018-08-22T13:49:08.315Z,16.89
2018-08-22T13:51:37.758Z,16.78
2018-08-22T13:54:07.407Z,16.71
2018-08-22T13:56:36.866Z,16.65
2018-08-22T13:59:06.581Z,17.31
2018-08-22T14:01:36.440Z,17.09
2018-08-22T14:04:06.125Z,17.01
2018-08-22T14:06:35.601Z,17.39
2018-08-22T14:09:06.970Z,17.72
2018-08-22T14:11:36.646Z,18.45
2018-08-22T14:14:06.219Z,18.67
2018-08-22T14:16:36.133Z,18.65
2018-08-22T14:19:06.004Z,19.68
2018-08-22T14:21:35.525Z,19.98
2018-08-22T14:24:05.131Z,19.95
2018-08-22T14:26:34.596Z,19.75
2018-08-22T14:29:04.139Z,20.39
2018-08-22T14:31:33.573Z,20.06
2018-08-22T14:34:03.082Z,20.66
2018-08-22T14:36:32.591Z,20.27
2018-08-22T14:39:02.540Z,20.54
2018-08-22T14:41:32.169Z,20.57
2018-08-22T14:44:01.665Z,21.10
2018-08-22T14:46:31.263Z,20.81
2018-08-22T14:49:00.896Z,20.77
2018-08-22T14:51:30.652Z,20.97
2018-08-22T14:54:00.621Z,21.12
2018-08-22T14:56:30.330Z,21.22
2018-08-22T14:59:00.266Z,20.90
2018-08-22T15:01:29.937Z,20.72
2018-08-22T15:03:59.689Z,20.67
2018-08-22T15:06:29.013Z,20.11
2018-08-22T15:09:04.212Z,19.96
2018-08-22T15:11:35.865Z,19.78
2018-08-22T15:14:06.411Z,20.14
2018-08-22T15:16:36.036Z,19.75
2018-08-22T15:19:05.817Z,19.64
2018-08-22T15:21:36.006Z,19.43
2018-08-22T15:24:05.602Z,19.86
2018-08-22T15:26:36.174Z,19.48
2018-08-22T15:29:06.200Z,19.67
2018-08-22T15:31:36.190Z,19.33
2018-08-22T15:34:06.183Z,19.84
2018-08-22T15:36:37.244Z,20.58
2018-08-22T15:39:09.748Z,20.90
2018-08-22T15:41:39.787Z,21.22
2018-08-22T15:44:09.472Z,21.49
2018-08-22T15:46:39.005Z,21.08
2018-08-22T15:49:08.820Z,21.32
2018-08-22T15:51:38.608Z,21.32
2018-08-22T15:54:14.188Z,21.56
2018-08-22T15:56:44.167Z,22.26
2018-08-22T15:59:14.188Z,21.89
2018-08-22T16:01:43.860Z,21.93
2018-08-22T16:04:13.441Z,22.05
2018-08-22T16:06:42.899Z,21.85
2018-08-22T16:09:17.760Z,21.33
2018-08-22T16:11:47.692Z,21.99
2018-08-22T16:14:17.509Z,21.93
2018-08-22T16:16:47.448Z,21.44
2018-08-22T16:19:17.005Z,20.98
2018-08-22T16:21:46.910Z,21.26
2018-08-22T16:24:16.605Z,21.50
2018-08-22T16:26:46.552Z,21.97
2018-08-22T16:29:16.281Z,21.26
2018-08-22T16:31:46.583Z,21.66
2018-08-22T16:34:17.065Z,20.96
2018-08-22T16:36:46.830Z,21.58
2018-08-22T16:39:21.095Z,21.20
2018-08-22T16:41:50.725Z,21.65
2018-08-22T16:44:20.811Z,22.00
2018-08-22T16:46:50.758Z,21.36
2018-08-22T16:49:20.466Z,22.58
2018-08-22T16:51:50.085Z,23.56
2018-08-22T16:54:20.012Z,24.17
2018-08-22T16:56:49.793Z,23.70
2018-08-22T16:59:20.454Z,24.58
2018-08-22T17:01:52.644Z,24.09
2018-08-22T17:04:22.317Z,23.87
2018-08-22T17:06:51.962Z,24.54
2018-08-22T17:09:21.526Z,24.90
2018-08-22T17:11:50.984Z,24.79
2018-08-22T17:14:20.424Z,25.24
2018-08-22T17:16:49.949Z,25.46
2018-08-22T17:19:19.873Z,26.01
2018-08-22T17:21:49.555Z,26.58
2018-08-22T17:24:19.092Z,26.54
2018-08-22T17:26:48.526Z,26.82
2018-08-22T17:29:19.174Z,26.50
2018-08-22T17:31:52.895Z,27.81
2018-08-22T17:34:22.473Z,28.70
2018-08-22T17:37:03.675Z,28.80
2018-08-22T17:39:33.741Z,29.34
2018-08-22T17:42:03.811Z,29.65
2018-08-22T17:44:33.392Z,29.38
2018-08-22T17:47:02.971Z,29.91
2018-08-22T17:49:32.704Z,30.14
2018-08-22T17:52:06.656Z,30.95
2018-08-22T17:54:36.478Z,31.42
2018-08-22T17:57:24.129Z,32.87
2018-08-22T17:59:54.276Z,33.26
2018-08-22T18:02:23.886Z,33.89
2018-08-22T18:04:57.339Z,37.32
2018-08-22T18:07:27.756Z,38.20
2018-08-22T18:14:52.027Z,40.44
2018-08-22T18:17:21.894Z,40.96
2018-08-22T18:19:51.509Z,41.38
2018-08-22T18:22:20.917Z,41.70
2018-08-22T18:24:56.230Z,40.84
2018-08-22T18:27:25.903Z,40.90
2018-08-22T18:29:55.548Z,41.22
2018-08-22T18:32:25.389Z,41.76
2018-08-22T18:35:08.332Z,41.40
2018-08-22T18:37:38.030Z,41.30
2018-08-22T18:40:20.566Z,41.29
2018-08-22T18:43:02.851Z,41.41
2018-08-22T18:45:32.484Z,41.85
2018-08-22T18:48:04.043Z,41.64
2018-08-22T18:50:34.641Z,41.20
2018-08-22T18:53:04.136Z,41.12
2018-08-22T18:55:34.835Z,41.67
2018-08-22T18:58:05.919Z,41.11
2018-08-22T19:00:38.144Z,41.72
2018-08-22T19:03:07.895Z,42.00
2018-08-22T19:05:38.338Z,41.44
2018-08-22T19:08:17.758Z,42.08
2018-08-22T19:10:50.284Z,41.82
2018-08-22T19:13:22.941Z,42.02
2018-08-22T19:15:56.408Z,42.62
2018-08-22T19:18:26.044Z,42.64
2018-08-22T19:20:59.275Z,42.20
2018-08-22T19:23:29.297Z,42.33
2018-08-22T19:25:59.545Z,42.97
2018-08-22T19:28:29.236Z,42.88
2018-08-22T19:30:58.706Z,43.33
2018-08-22T19:33:29.703Z,43.65
2018-08-22T19:35:59.605Z,43.78
2018-08-22T19:38:29.276Z,43.63
2018-08-22T19:41:00.981Z,44.07
2018-08-22T19:43:31.158Z,43.61
2018-08-22T19:46:00.776Z,43.84
2018-08-22T19:48:30.244Z,43.89
2018-08-22T19:50:59.932Z,44.41
2018-08-22T19:53:29.750Z,43.87
2018-08-22T19:55:59.292Z,44.05
2018-08-22T19:58:34.792Z,44.36
2018-08-22T20:01:04.548Z,44.54
2018-08-22T20:03:35.443Z,45.38
2018-08-22T20:06:05.274Z,45.23
2018-08-22T20:08:37.969Z,46.56
2018-08-22T20:11:08.236Z,45.99
2018-08-22T20:13:50.334Z,46.02
2018-08-22T20:16:21.207Z,45.34
2018-08-22T20:18:54.882Z,46.52
2018-08-22T20:21:32.326Z,46.31
2018-08-22T20:24:02.823Z,46.61
2018-08-22T20:26:32.858Z,45.41
2018-08-22T20:29:04.419Z,46.52
2018-08-22T20:31:35.875Z,47.08
2018-08-22T20:34:10.033Z,46.89
2018-08-22T20:36:39.774Z,46.80
2018-08-22T20:39:11.351Z,46.60
2018-08-22T20:41:41.474Z,47.00
2018-08-22T20:44:13.610Z,46.79
2018-08-22T20:46:44.788Z,47.74
2018-08-22T20:49:14.700Z,48.00
2018-08-22T20:51:44.624Z,47.91
2018-08-22T20:54:15.706Z,48.30
2018-08-22T20:56:50.414Z,48.79
2018-08-22T20:59:20.739Z,48.08
2018-08-22T21:01:55.711Z,48.34
2018-08-22T21:04:25.270Z,46.51
2018-08-22T21:06:54.734Z,48.29
2018-08-22T21:09:24.351Z,48.55
2018-08-22T21:11:56.855Z,47.94
2018-08-22T21:14:27.736Z,48.19
2018-08-22T21:16:57.578Z,47.87
2018-08-22T21:19:27.141Z,47.71
2018-08-22T21:21:56.521Z,48.06
2018-08-22T21:24:26.643Z,48.56
2018-08-22T21:26:56.528Z,49.00
2018-08-22T21:29:25.945Z,49.43
2018-08-22T21:31:55.704Z,49.52
2018-08-22T21:34:25.266Z,50.06
2018-08-22T21:36:55.028Z,50.30
2018-08-22T21:39:27.647Z,50.10
2018-08-22T21:41:57.683Z,50.06
2018-08-22T21:44:27.183Z,49.54
2018-08-22T21:47:02.048Z,49.79
2018-08-22T21:49:31.972Z,50.53
2018-08-22T21:52:02.137Z,51.13
2018-08-22T21:54:31.869Z,50.11
2018-08-22T21:57:01.464Z,50.01
2018-08-22T21:59:30.929Z,49.71
2018-08-22T22:02:05.782Z,49.02
2018-08-22T22:04:36.920Z,48.41
2018-08-22T22:07:08.224Z,48.17
2018-08-22T22:09:38.586Z,48.64
2018-08-22T22:12:13.482Z,48.68
2018-08-22T22:14:45.179Z,50.25
2018-08-22T22:17:14.581Z,49.02
2018-08-22T22:19:43.990Z,49.53
2018-08-22T22:22:13.667Z,50.40
2018-08-22T22:24:52.830Z,50.55
2018-08-22T22:27:22.710Z,50.52
2018-08-22T22:30:01.973Z,50.59
2018-08-22T22:32:32.080Z,51.42
2018-08-22T22:35:02.196Z,51.02
2018-08-22T22:37:31.664Z,51.59
2018-08-22T22:40:01.146Z,51.49
2018-08-22T22:42:30.666Z,51.92
2018-08-22T22:45:00.703Z,51.45
2018-08-22T22:47:33.516Z,51.83
2018-08-22T22:50:03.619Z,51.20
2018-08-22T22:52:39.292Z,51.88
2018-08-22T22:55:09.777Z,51.98
2018-08-22T22:57:40.650Z,51.49
2018-08-22T23:00:11.834Z,51.65
2018-08-22T23:02:41.587Z,52.66
2018-08-22T23:05:11.220Z,52.55
2018-08-22T23:07:41.733Z,51.87
2018-08-22T23:10:12.977Z,52.72
2018-08-22T23:12:43.372Z,52.78
2018-08-22T23:15:15.689Z,53.30
2018-08-22T23:17:47.233Z,53.75
2018-08-22T23:20:41.821Z,53.11
2018-08-22T23:23:26.490Z,53.09
2018-08-22T23:25:58.995Z,52.64
2018-08-22T23:28:28.924Z,53.79
2018-08-22T23:30:58.550Z,53.05
2018-08-22T23:33:29.043Z,53.31
2018-08-22T23:35:58.561Z,53.78
2018-08-22T23:38:30.469Z,53.89
2018-08-22T23:41:00.749Z,54.22
2018-08-22T23:43:41.349Z,54.30
2018-08-22T23:46:12.013Z,54.56
2018-08-22T23:48:42.000Z,55.65
2018-08-22T23:51:13.339Z,56.63
2018-08-22T23:53:47.551Z,56.77
2018-08-22T23:56:21.117Z,56.60
2018-08-22T23:58:51.547Z,56.47
